Time;durP1;ratioP1;P1;durP2;ratioP2;P2;SDS_P1;SDS_P2;PMS_P1;PMS_P2;Temp;Humidity;BMP_temperature;BMP_pressure;BME280_temperature;BME280_humidity;BME280_pressure;Samples;Min_cycle;Max_cycle;Signal;HPM_P1;HPM_P2
2021/04/24 00:01:00;;;;;;;6.13;3.10;;;;;;;;;;5082553;28;20020;-69
2021/04/24 00:03:26;;;;;;;6.85;3.00;;;;;;;;;;5092909;28;20024;-70
2021/04/24 00:05:52;;;;;;;7.28;3.13;;;;;;;;;;5093113;28;20391;-68
2021/04/24 00:08:18;;;;;;;7.20;3.42;;;;;;;;;;5073039;28;20052;-68
2021/04/24 00:10:46;;;;;;;7.85;3.05;;;;;;;;;;5073253;28;20063;-69
2021/04/24 00:13:13;;;;;;;8.70;2.80;;;;;;;;;;5072934;28;20044;-70
2021/04/24 00:15:40;;;;;;;7.07;3.13;;;;;;;;;;5072940;28;20368;-69
2021/04/24 00:18:06;;;;;;;7.45;3.45;;;;;;;;;;5083934;28;20018;-69
2021/04/24 00:20:33;;;;;;;5.82;3.25;;;;;;;;;;5091672;28;20060;-71
2021/04/24 00:22:59;;;;;;;6.60;3.03;;;;;;;;;;5093108;28;20057;-71
2021/04/24 00:25:25;;;;;;;8.52;3.45;;;;;;;;;;5078506;28;20036;-71
2021/04/24 00:27:51;;;;;;;6.70;2.95;;;;;;;;;;5088520;28;20032;-71
2021/04/24 00:30:18;;;;;;;9.02;2.90;;;;;;;;;;5072664;28;20467;-68
2021/04/24 00:32:44;;;;;;;8.50;3.50;;;;;;;;;;5076218;28;20114;-73
2021/04/24 00:35:10;;;;;;;9.50;3.17;;;;;;;;;;5092077;28;20047;-72
2021/04/24 00:37:36;;;;;;;9.45;3.50;;;;;;;;;;5092672;28;20378;-71
2021/04/24 00:40:03;;;;;;;6.50;3.20;;;;;;;;;;5091429;28;20024;-69
2021/04/24 00:42:29;;;;;;;8.73;3.67;;;;;;;;;;5092882;28;20052;-83
2021/04/24 00:44:55;;;;;;;6.45;3.67;;;;;;;;;;5092548;28;20127;-70
2021/04/24 00:47:22;;;;;;;8.10;3.30;;;;;;;;;;5092508;28;20020;-72
2021/04/24 00:49:48;;;;;;;7.60;3.85;;;;;;;;;;5092595;28;20059;-71
2021/04/24 00:52:14;;;;;;;10.30;3.22;;;;;;;;;;5080035;28;20111;-70
2021/04/24 00:54:40;;;;;;;8.20;3.25;;;;;;;;;;5071937;28;20443;-74
2021/04/24 00:57:07;;;;;;;6.32;3.05;;;;;;;;;;5087468;28;20043;-73
2021/04/24 00:59:34;;;;;;;8.90;3.35;;;;;;;;;;5087264;28;20453;-74
2021/04/24 01:02:01;;;;;;;7.30;3.05;;;;;;;;;;5071831;28;20068;-71
2021/04/24 01:04:27;;;;;;;7.93;3.22;;;;;;;;;;5087569;28;20028;-71
2021/04/24 01:06:54;;;;;;;6.40;3.58;;;;;;;;;;5080468;28;20024;-72
2021/04/24 01:09:20;;;;;;;7.53;3.20;;;;;;;;;;5087613;28;20024;-71
2021/04/24 01:11:46;;;;;;;10.70;3.60;;;;;;;;;;5091965;28;20020;-72
2021/04/24 01:14:12;;;;;;;8.70;3.08;;;;;;;;;;5091986;28;20091;-71
2021/04/24 01:16:38;;;;;;;7.97;3.08;;;;;;;;;;5091963;28;20031;-73
2021/04/24 01:19:04;;;;;;;6.00;3.15;;;;;;;;;;5090670;28;20016;-72
2021/04/24 01:21:32;;;;;;;11.90;3.55;;;;;;;;;;5090632;28;20035;-73
2021/04/24 01:23:58;;;;;;;6.53;3.28;;;;;;;;;;5089479;28;20024;-72
2021/04/24 01:26:24;;;;;;;7.72;2.78;;;;;;;;;;5087563;28;20033;-69
2021/04/24 01:28:50;;;;;;;9.18;3.15;;;;;;;;;;5070438;28;20479;-68
2021/04/24 01:31:16;;;;;;;10.00;3.08;;;;;;;;;;5071669;28;20028;-70
2021/04/24 01:33:43;;;;;;;9.65;3.25;;;;;;;;;;5072015;28;20031;-73
2021/04/24 01:36:09;;;;;;;8.05;3.17;;;;;;;;;;5078079;28;20020;-67
2021/04/24 01:38:35;;;;;;;7.68;3.15;;;;;;;;;;5091577;28;20024;-73
2021/04/24 01:41:01;;;;;;;9.85;3.17;;;;;;;;;;5091333;28;20028;-73
2021/04/24 01:43:29;;;;;;;9.45;3.08;;;;;;;;;;5089485;28;20032;-68
2021/04/24 01:45:55;;;;;;;10.07;3.75;;;;;;;;;;5091709;28;20024;-68
2021/04/24 01:48:21;;;;;;;8.20;3.45;;;;;;;;;;5091442;28;20093;-68
2021/04/24 01:50:47;;;;;;;9.27;3.00;;;;;;;;;;5091333;28;20020;-75
2021/04/24 01:53:17;;;;;;;9.75;2.95;;;;;;;;;;5091379;28;20085;-76
2021/04/24 01:55:43;;;;;;;9.60;3.75;;;;;;;;;;5091240;28;20016;-76
2021/04/24 01:58:11;;;;;;;8.55;3.63;;;;;;;;;;5091498;28;20020;-68
2021/04/24 02:00:38;;;;;;;10.00;3.53;;;;;;;;;;5075676;28;20028;-73
2021/04/24 02:03:08;;;;;;;6.15;2.88;;;;;;;;;;5071328;28;20017;-70
2021/04/24 02:05:34;;;;;;;6.50;3.10;;;;;;;;;;5070786;28;20395;-67
2021/04/24 02:08:08;;;;;;;8.40;3.45;;;;;;;;;;5088098;28;20099;-67
2021/04/24 02:10:36;;;;;;;7.28;3.13;;;;;;;;;;5090452;28;20028;-69
2021/04/24 02:13:05;;;;;;;8.38;3.33;;;;;;;;;;5090770;28;20103;-68
2021/04/24 02:15:31;;;;;;;12.02;3.58;;;;;;;;;;5089331;28;20123;-68
2021/04/24 02:17:57;;;;;;;8.70;4.15;;;;;;;;;;5072207;28;20348;-67
2021/04/24 02:20:23;;;;;;;10.05;4.30;;;;;;;;;;5070347;28;20364;-67
2021/04/24 02:22:49;;;;;;;8.88;3.30;;;;;;;;;;5070466;28;20077;-67
2021/04/24 02:25:16;;;;;;;10.00;3.88;;;;;;;;;;5074582;28;20032;-67
2021/04/24 02:27:43;;;;;;;8.00;3.65;;;;;;;;;;5074457;28;20060;-67
2021/04/24 02:30:11;;;;;;;7.60;3.80;;;;;;;;;;5074452;28;20024;-67
2021/04/24 02:32:38;;;;;;;6.55;3.50;;;;;;;;;;5072989;28;20120;-71
2021/04/24 02:35:05;;;;;;;7.10;3.38;;;;;;;;;;5093489;28;20016;-68
2021/04/24 02:37:31;;;;;;;9.32;3.55;;;;;;;;;;5094983;28;20027;-68
2021/04/24 02:39:57;;;;;;;8.68;3.80;;;;;;;;;;5079091;28;20036;-67
2021/04/24 02:42:24;;;;;;;6.40;3.50;;;;;;;;;;5075404;28;20084;-68
2021/04/24 02:44:51;;;;;;;8.05;3.75;;;;;;;;;;5074392;28;20039;-67
2021/04/24 02:47:18;;;;;;;9.13;3.65;;;;;;;;;;5074151;28;20031;-68
2021/04/24 02:49:44;;;;;;;11.75;3.72;;;;;;;;;;5074724;28;20021;-67
2021/04/24 02:52:10;;;;;;;6.68;3.72;;;;;;;;;;5094247;28;20016;-68
2021/04/24 02:54:37;;;;;;;7.85;3.92;;;;;;;;;;5094689;28;20482;-68
2021/04/24 02:57:03;;;;;;;7.90;3.22;;;;;;;;;;5093493;28;20071;-67
2021/04/24 02:59:29;;;;;;;9.05;4.15;;;;;;;;;;5094375;28;20085;-67
2021/04/24 03:01:55;;;;;;;7.88;3.33;;;;;;;;;;5093266;28;20479;-69
2021/04/24 03:04:22;;;;;;;6.53;3.45;;;;;;;;;;5094518;28;20040;-67
2021/04/24 03:06:48;;;;;;;7.25;3.38;;;;;;;;;;5089840;28;20013;-67
2021/04/24 03:09:14;;;;;;;7.32;3.42;;;;;;;;;;5094508;28;20024;-69
2021/04/24 03:11:42;;;;;;;7.97;3.70;;;;;;;;;;5093224;28;20055;-68
2021/04/24 03:14:08;;;;;;;6.78;3.22;;;;;;;;;;5094283;28;20023;-68
2021/04/24 03:16:34;;;;;;;6.25;3.35;;;;;;;;;;5092628;28;20055;-67
2021/04/24 03:19:00;;;;;;;6.82;3.53;;;;;;;;;;5092314;28;20445;-67
2021/04/24 03:21:27;;;;;;;6.68;3.80;;;;;;;;;;5093443;28;20024;-69
2021/04/24 03:23:54;;;;;;;6.00;3.20;;;;;;;;;;5091879;28;20028;-71
2021/04/24 03:26:21;;;;;;;6.85;3.10;;;;;;;;;;5093287;28;20028;-70
2021/04/24 03:28:47;;;;;;;7.43;3.33;;;;;;;;;;5093462;28;20809;-70
2021/04/24 03:31:13;;;;;;;6.70;3.13;;;;;;;;;;5092104;28;20063;-67
2021/04/24 03:33:39;;;;;;;6.78;3.40;;;;;;;;;;5093603;28;20039;-67
2021/04/24 03:36:06;;;;;;;8.15;3.58;;;;;;;;;;5093369;28;20205;-67
2021/04/24 03:38:32;;;;;;;8.40;3.33;;;;;;;;;;5093237;28;20069;-68
2021/04/24 03:40:58;;;;;;;8.18;3.30;;;;;;;;;;5092346;28;20052;-67
2021/04/24 03:43:24;;;;;;;7.32;3.70;;;;;;;;;;5093078;28;20099;-71
2021/04/24 03:45:50;;;;;;;6.40;2.88;;;;;;;;;;5093386;28;20185;-67
2021/04/24 03:48:17;;;;;;;10.35;3.38;;;;;;;;;;5093565;28;20020;-68
2021/04/24 03:50:43;;;;;;;6.75;3.20;;;;;;;;;;5092249;28;20111;-67
2021/04/24 03:53:09;;;;;;;5.95;2.92;;;;;;;;;;5093510;28;20020;-67
2021/04/24 03:55:35;;;;;;;8.73;3.28;;;;;;;;;;5093364;28;20048;-68
2021/04/24 03:58:01;;;;;;;5.57;3.15;;;;;;;;;;5089948;28;20028;-68
2021/04/24 04:00:28;;;;;;;6.60;3.42;;;;;;;;;;5088846;28;20023;-68
2021/04/24 04:02:56;;;;;;;6.63;3.28;;;;;;;;;;5088803;28;20119;-71
2021/04/24 04:05:23;;;;;;;10.57;3.72;;;;;;;;;;5073059;28;20028;-72
2021/04/24 04:07:49;;;;;;;6.38;3.20;;;;;;;;;;5088468;28;20036;-67
2021/04/24 04:10:16;;;;;;;6.93;3.25;;;;;;;;;;5073050;28;20440;-68
2021/04/24 04:12:42;;;;;;;10.50;3.40;;;;;;;;;;5073082;28;20213;-68
2021/04/24 04:15:09;;;;;;;7.47;3.42;;;;;;;;;;5075928;28;20099;-72
2021/04/24 04:17:38;;;;;;;8.45;3.20;;;;;;;;;;5092951;28;20028;-69
2021/04/24 04:20:08;;;;;;;6.30;3.55;;;;;;;;;;5091811;28;20025;-67
2021/04/24 04:22:34;;;;;;;5.72;3.20;;;;;;;;;;5091642;28;20494;-67
2021/04/24 04:25:00;;;;;;;5.03;2.75;;;;;;;;;;5082023;28;20048;-68
2021/04/24 04:27:27;;;;;;;9.40;3.42;;;;;;;;;;5088001;28;20024;-71
2021/04/24 04:29:53;;;;;;;5.80;2.88;;;;;;;;;;5072710;28;20020;-67
2021/04/24 04:32:19;;;;;;;6.53;3.15;;;;;;;;;;5088476;28;20108;-67
2021/04/24 04:34:45;;;;;;;8.63;3.15;;;;;;;;;;5072388;28;20029;-68
2021/04/24 04:37:13;;;;;;;20.60;3.65;;;;;;;;;;5072556;28;20025;-67
2021/04/24 04:39:40;;;;;;;8.10;3.30;;;;;;;;;;5072524;28;20031;-69
2021/04/24 04:42:07;;;;;;;6.07;3.00;;;;;;;;;;5072278;28;20097;-67
2021/04/24 04:44:34;;;;;;;7.32;3.55;;;;;;;;;;5072525;28;20038;-67
2021/04/24 04:47:00;;;;;;;6.30;3.25;;;;;;;;;;5071840;28;20045;-67
2021/04/24 04:49:26;;;;;;;7.30;3.10;;;;;;;;;;5077686;28;20024;-70
2021/04/24 04:51:52;;;;;;;5.45;3.03;;;;;;;;;;5092685;28;20047;-74
2021/04/24 04:54:18;;;;;;;7.15;3.15;;;;;;;;;;5092725;28;20032;-68
2021/04/24 04:56:44;;;;;;;7.38;3.53;;;;;;;;;;5091412;28;20035;-68
2021/04/24 04:59:10;;;;;;;9.93;3.70;;;;;;;;;;5092339;28;20031;-67
2021/04/24 05:01:36;;;;;;;6.65;3.42;;;;;;;;;;5092199;28;20085;-67
2021/04/24 05:04:02;;;;;;;6.70;3.05;;;;;;;;;;5092214;28;20028;-70
2021/04/24 05:06:28;;;;;;;6.70;3.03;;;;;;;;;;5091312;28;20046;-68
2021/04/24 05:08:54;;;;;;;7.78;3.05;;;;;;;;;;5092263;28;20020;-71
2021/04/24 05:11:20;;;;;;;9.40;3.40;;;;;;;;;;5092070;28;20024;-71
2021/04/24 05:13:46;;;;;;;8.40;3.15;;;;;;;;;;5090875;28;20020;-70
2021/04/24 05:16:12;;;;;;;8.80;3.50;;;;;;;;;;5092099;28;20022;-73
2021/04/24 05:18:38;;;;;;;7.32;3.50;;;;;;;;;;5091724;28;20419;-70
2021/04/24 05:21:05;;;;;;;5.90;2.85;;;;;;;;;;5091704;28;20016;-68
2021/04/24 05:23:31;;;;;;;7.93;3.85;;;;;;;;;;5085381;28;20020;-68
2021/04/24 05:25:57;;;;;;;9.30;3.42;;;;;;;;;;5071622;28;20046;-68
2021/04/24 05:28:23;;;;;;;9.13;3.20;;;;;;;;;;5071693;28;20021;-67
2021/04/24 05:30:49;;;;;;;5.95;3.22;;;;;;;;;;5071789;28;20103;-68
2021/04/24 05:33:15;;;;;;;6.72;3.60;;;;;;;;;;5071544;28;20027;-64
2021/04/24 05:35:41;;;;;;;7.72;3.55;;;;;;;;;;5071205;28;20025;-67
2021/04/24 05:38:07;;;;;;;7.93;3.50;;;;;;;;;;5071400;28;20032;-72
2021/04/24 05:40:33;;;;;;;7.55;3.20;;;;;;;;;;5077045;28;20074;-68
2021/04/24 05:42:59;;;;;;;6.78;3.10;;;;;;;;;;5091396;28;20123;-67
2021/04/24 05:45:25;;;;;;;10.27;3.55;;;;;;;;;;5091198;28;20036;-70
2021/04/24 05:47:52;;;;;;;7.43;3.20;;;;;;;;;;5090334;28;20020;-69
2021/04/24 05:50:20;;;;;;;9.52;3.03;;;;;;;;;;5091398;28;20390;-74
2021/04/24 05:52:46;;;;;;;7.20;3.40;;;;;;;;;;5091474;28;20016;-68
2021/04/24 05:55:12;;;;;;;8.38;3.22;;;;;;;;;;5091432;28;20463;-69
2021/04/24 05:57:39;;;;;;;5.70;3.20;;;;;;;;;;5083161;28;20538;-70
2021/04/24 06:00:06;;;;;;;7.35;3.17;;;;;;;;;;5070896;28;20031;-67
2021/04/24 06:02:34;;;;;;;8.98;3.72;;;;;;;;;;5070963;28;20052;-69
2021/04/24 06:05:00;;;;;;;7.07;3.35;;;;;;;;;;5070792;28;20134;-68
2021/04/24 06:07:26;;;;;;;7.90;3.28;;;;;;;;;;5083815;28;20020;-69
2021/04/24 06:09:52;;;;;;;8.02;3.40;;;;;;;;;;5091047;28;20106;-69
2021/04/24 06:12:18;;;;;;;6.68;3.17;;;;;;;;;;5091091;28;20074;-68
2021/04/24 06:14:44;;;;;;;9.00;3.63;;;;;;;;;;5083062;28;20028;-69
2021/04/24 06:17:10;;;;;;;5.53;2.83;;;;;;;;;;5070828;28;20025;-68
2021/04/24 06:19:36;;;;;;;6.28;2.70;;;;;;;;;;5086205;28;20063;-68
2021/04/24 06:22:02;;;;;;;6.20;3.00;;;;;;;;;;5086397;28;20016;-67
2021/04/24 06:24:28;;;;;;;6.97;3.05;;;;;;;;;;5071149;28;20033;-67
2021/04/24 06:26:54;;;;;;;7.35;4.22;;;;;;;;;;5069622;28;20024;-68
2021/04/24 06:29:20;;;;;;;6.82;2.80;;;;;;;;;;5070664;28;20074;-69
2021/04/24 06:31:46;;;;;;;4.93;2.55;;;;;;;;;;5078486;28;20073;-72
2021/04/24 06:34:12;;;;;;;6.30;3.00;;;;;;;;;;5090917;28;20107;-68
2021/04/24 06:36:38;;;;;;;8.00;3.08;;;;;;;;;;5090944;28;20529;-68
2021/04/24 06:39:06;;;;;;;5.93;2.70;;;;;;;;;;5084364;28;20381;-68
2021/04/24 06:41:33;;;;;;;5.97;3.28;;;;;;;;;;5108190;28;20066;-68
2021/04/24 06:43:59;;;;;;;9.10;3.28;;;;;;;;;;5109882;28;20047;-67
2021/04/24 06:46:25;;;;;;;8.05;2.97;;;;;;;;;;5111165;28;20056;-67
2021/04/24 06:48:51;;;;;;;10.00;3.10;;;;;;;;;;5101138;28;20016;-67
2021/04/24 06:51:17;;;;;;;6.20;3.03;;;;;;;;;;5090816;28;20051;-68
2021/04/24 06:53:43;;;;;;;6.00;3.03;;;;;;;;;;5090576;28;20033;-68
2021/04/24 06:56:09;;;;;;;7.65;2.78;;;;;;;;;;5090627;28;20490;-68
2021/04/24 06:58:35;;;;;;;7.13;3.28;;;;;;;;;;5090780;28;20020;-68
2021/04/24 07:01:01;;;;;;;8.77;3.33;;;;;;;;;;5089512;28;20031;-68
2021/04/24 07:03:27;;;;;;;4.95;2.58;;;;;;;;;;5090688;28;20490;-68
2021/04/24 07:05:53;;;;;;;8.55;2.80;;;;;;;;;;5081211;28;20036;-68
2021/04/24 07:08:19;;;;;;;5.80;2.78;;;;;;;;;;5089350;28;20120;-68
2021/04/24 07:10:46;;;;;;;5.82;2.45;;;;;;;;;;5093677;28;20035;-71
2021/04/24 07:13:12;;;;;;;5.20;2.38;;;;;;;;;;5093004;28;20020;-72
2021/04/24 07:15:38;;;;;;;8.45;2.63;;;;;;;;;;5093622;28;20081;-69
2021/04/24 07:18:04;;;;;;;5.05;2.58;;;;;;;;;;5092238;28;20028;-68
2021/04/24 07:20:30;;;;;;;5.25;2.30;;;;;;;;;;5092233;28;20020;-69
2021/04/24 07:22:56;;;;;;;8.00;2.33;;;;;;;;;;5082586;28;20033;-68
2021/04/24 07:25:22;;;;;;;5.75;2.63;;;;;;;;;;5073137;28;20497;-69
2021/04/24 07:27:48;;;;;;;6.65;2.67;;;;;;;;;;5073324;28;20028;-69
2021/04/24 07:30:15;;;;;;;5.13;2.85;;;;;;;;;;5071852;28;20028;-69
2021/04/24 07:32:41;;;;;;;6.05;2.40;;;;;;;;;;5073180;28;20021;-69
2021/04/24 07:35:08;;;;;;;5.63;2.28;;;;;;;;;;5073222;28;20024;-70
2021/04/24 07:37:35;;;;;;;5.60;2.22;;;;;;;;;;5072857;28;20093;-68
2021/04/24 07:40:01;;;;;;;4.57;2.25;;;;;;;;;;5083377;28;20028;-68
2021/04/24 07:42:27;;;;;;;5.32;2.50;;;;;;;;;;5091705;28;20040;-68
2021/04/24 07:44:53;;;;;;;6.75;2.58;;;;;;;;;;5093515;28;20035;-68
2021/04/24 07:47:19;;;;;;;6.05;2.10;;;;;;;;;;5093685;28;20154;-68
2021/04/24 07:49:46;;;;;;;6.60;2.40;;;;;;;;;;5093676;28;20028;-68
2021/04/24 07:52:12;;;;;;;5.80;2.53;;;;;;;;;;5093780;28;20027;-69
2021/04/24 07:54:43;;;;;;;5.57;2.50;;;;;;;;;;5093554;28;20028;-69
2021/04/24 07:57:13;;;;;;;5.00;2.10;;;;;;;;;;5081853;28;20130;-72
2021/04/24 07:59:39;;;;;;;4.47;2.00;;;;;;;;;;5073075;28;20036;-69
2021/04/24 08:02:05;;;;;;;4.22;2.08;;;;;;;;;;5073103;28;20024;-68
2021/04/24 08:04:31;;;;;;;6.82;2.78;;;;;;;;;;5073208;28;20082;-70
2021/04/24 08:06:57;;;;;;;5.55;2.53;;;;;;;;;;5088663;28;20078;-69
2021/04/24 08:09:25;;;;;;;6.25;2.22;;;;;;;;;;5072883;28;20056;-68
2021/04/24 08:11:52;;;;;;;7.43;2.58;;;;;;;;;;5073016;28;20021;-69
2021/04/24 08:14:18;;;;;;;6.53;2.10;;;;;;;;;;5085441;28;20028;-69
2021/04/24 08:16:44;;;;;;;5.68;2.10;;;;;;;;;;5091820;28;20091;-68
2021/04/24 08:19:10;;;;;;;6.18;2.50;;;;;;;;;;5093083;28;20024;-68
2021/04/24 08:21:36;;;;;;;6.43;2.13;;;;;;;;;;5091983;28;20024;-69
2021/04/24 08:24:02;;;;;;;5.70;2.13;;;;;;;;;;5076450;28;20112;-69
2021/04/24 08:26:29;;;;;;;5.10;2.10;;;;;;;;;;5072652;28;20506;-68
2021/04/24 08:28:55;;;;;;;5.30;2.25;;;;;;;;;;5088024;28;20036;-69
2021/04/24 08:31:21;;;;;;;4.97;2.20;;;;;;;;;;5085543;28;20020;-69
2021/04/24 08:33:47;;;;;;;7.35;2.88;;;;;;;;;;5092598;28;20514;-71
2021/04/24 08:36:14;;;;;;;4.18;2.10;;;;;;;;;;5091278;28;20054;-68
2021/04/24 08:38:40;;;;;;;7.05;2.22;;;;;;;;;;5091349;28;20028;-78
2021/04/24 08:41:07;;;;;;;5.10;2.28;;;;;;;;;;5092624;28;20039;-68
2021/04/24 08:43:42;;;;;;;4.43;1.95;;;;;;;;;;5092579;28;20107;-69
2021/04/24 08:46:08;;;;;;;4.72;2.42;;;;;;;;;;5092759;28;20028;-68
2021/04/24 08:48:35;;;;;;;3.92;1.90;;;;;;;;;;5077782;28;20095;-69
2021/04/24 08:51:01;;;;;;;4.55;1.75;;;;;;;;;;5072373;28;20047;-71
2021/04/24 08:53:28;;;;;;;5.05;2.00;;;;;;;;;;5072141;28;20021;-70
2021/04/24 08:55:54;;;;;;;6.90;2.00;;;;;;;;;;5072346;28;20052;-71
2021/04/24 08:58:20;;;;;;;4.95;2.13;;;;;;;;;;5072016;28;20361;-75
2021/04/24 09:00:48;;;;;;;6.47;1.83;;;;;;;;;;5071960;28;20113;-69
2021/04/24 09:03:20;;;;;;;5.18;1.70;;;;;;;;;;5071916;28;20475;-69
2021/04/24 09:05:47;;;;;;;4.72;1.80;;;;;;;;;;5072242;28;20033;-69
2021/04/24 09:08:13;;;;;;;5.63;1.98;;;;;;;;;;5091325;28;20083;-69
2021/04/24 09:10:39;;;;;;;6.28;1.70;;;;;;;;;;5092078;28;20020;-69
2021/04/24 09:13:06;;;;;;;3.60;1.40;;;;;;;;;;5091941;28;20044;-73
2021/04/24 09:15:32;;;;;;;3.40;1.60;;;;;;;;;;5090653;28;20027;-70
2021/04/24 09:18:03;;;;;;;5.50;1.80;;;;;;;;;;5092024;28;20055;-68
2021/04/24 09:20:52;;;;;;;3.83;1.60;;;;;;;;;;5092107;28;20020;-68
2021/04/24 09:23:19;;;;;;;5.20;1.73;;;;;;;;;;5077941;28;20093;-69
2021/04/24 09:25:48;;;;;;;3.95;1.65;;;;;;;;;;5091629;28;20501;-68
2021/04/24 09:28:27;;;;;;;4.85;1.90;;;;;;;;;;5091688;28;20024;-73
2021/04/24 09:30:53;;;;;;;4.55;1.38;;;;;;;;;;5091780;28;20495;-74
2021/04/24 09:33:19;;;;;;;20.00;1.75;;;;;;;;;;5091572;28;20020;-71
2021/04/24 09:35:51;;;;;;;5.55;1.50;;;;;;;;;;5091794;28;20024;-72
2021/04/24 09:38:22;;;;;;;5.63;1.85;;;;;;;;;;5085869;28;20024;-73
2021/04/24 09:41:06;;;;;;;5.57;1.50;;;;;;;;;;5071094;28;20091;-71
2021/04/24 09:43:47;;;;;;;4.45;1.40;;;;;;;;;;5071342;28;20526;-79
2021/04/24 09:46:14;;;;;;;6.43;1.30;;;;;;;;;;5086936;28;20036;-80
2021/04/24 09:48:40;;;;;;;3.70;1.75;;;;;;;;;;5086897;28;20025;-81
2021/04/24 09:51:19;;;;;;;5.00;1.80;;;;;;;;;;5087112;28;20097;-71
2021/04/24 09:53:59;;;;;;;3.85;1.60;;;;;;;;;;5072074;28;20067;-77
2021/04/24 09:56:25;;;;;;;6.45;1.60;;;;;;;;;;5085402;28;20046;-74
2021/04/24 09:58:52;;;;;;;3.88;1.50;;;;;;;;;;5091714;28;20103;-76
2021/04/24 10:01:26;;;;;;;4.43;1.30;;;;;;;;;;5089928;28;20056;-73
2021/04/24 10:03:53;;;;;;;2.78;1.33;;;;;;;;;;5091411;28;20122;-77
2021/04/24 10:06:29;;;;;;;5.60;1.40;;;;;;;;;;5086633;28;20016;-73
2021/04/24 10:09:21;;;;;;;3.42;1.52;;;;;;;;;;5071332;28;20029;-73
2021/04/24 10:12:08;;;;;;;4.07;1.63;;;;;;;;;;5082505;28;20043;-74
2021/04/24 10:14:42;;;;;;;3.10;1.48;;;;;;;;;;5069877;28;20032;-72
2021/04/24 10:17:13;;;;;;;3.85;1.50;;;;;;;;;;5069625;28;20087;-72
2021/04/24 10:19:39;;;;;;;3.35;1.40;;;;;;;;;;5070969;28;20654;-73
2021/04/24 10:22:08;;;;;;;3.17;1.33;;;;;;;;;;5085864;28;20028;-72
2021/04/24 10:24:34;;;;;;;2.05;1.05;;;;;;;;;;5090848;28;20044;-71
2021/04/24 10:27:01;;;;;;;4.00;1.50;;;;;;;;;;5089545;28;20020;-71
2021/04/24 10:29:27;;;;;;;2.67;1.27;;;;;;;;;;5085437;28;20030;-71
2021/04/24 10:31:53;;;;;;;2.58;1.20;;;;;;;;;;5071036;28;20052;-72
2021/04/24 10:34:20;;;;;;;3.70;1.40;;;;;;;;;;5086272;28;20052;-74
2021/04/24 10:36:46;;;;;;;7.65;1.52;;;;;;;;;;5070702;28;20025;-72
2021/04/24 10:39:18;;;;;;;6.32;1.23;;;;;;;;;;5071407;28;20105;-70
2021/04/24 10:41:47;;;;;;;6.22;1.60;;;;;;;;;;5071341;28;20088;-69
2021/04/24 10:44:14;;;;;;;6.25;1.77;;;;;;;;;;5070442;28;20040;-71
2021/04/24 10:46:46;;;;;;;6.43;1.50;;;;;;;;;;5079274;28;20461;-76
2021/04/24 10:49:16;;;;;;;4.28;1.48;;;;;;;;;;5092965;28;20532;-70
2021/04/24 10:51:51;;;;;;;4.25;1.25;;;;;;;;;;5092783;28;20449;-70
2021/04/24 10:54:17;;;;;;;3.83;1.42;;;;;;;;;;5094455;28;20082;-72
2021/04/24 10:56:43;;;;;;;12.75;1.83;;;;;;;;;;5094649;28;20026;-78
2021/04/24 10:59:23;;;;;;;17.95;2.17;;;;;;;;;;5093502;28;20027;-75
2021/04/24 11:02:01;;;;;;;7.32;1.90;;;;;;;;;;5093510;28;20035;-75
2021/04/24 11:04:41;;;;;;;10.60;2.50;;;;;;;;;;5093976;28;20356;-77
2021/04/24 11:07:19;;;;;;;10.30;2.45;;;;;;;;;;5083797;28;20025;-77
2021/04/24 11:09:46;;;;;;;5.85;2.20;;;;;;;;;;5074243;28;20567;-77
2021/04/24 11:12:17;;;;;;;5.28;1.88;;;;;;;;;;5074225;28;20098;-76
2021/04/24 11:14:43;;;;;;;8.45;1.90;;;;;;;;;;5074154;28;20142;-77
2021/04/24 11:17:11;;;;;;;7.05;2.35;;;;;;;;;;5072614;28;20028;-77
2021/04/24 11:19:45;;;;;;;8.52;1.80;;;;;;;;;;5073298;28;20463;-76
2021/04/24 11:22:30;;;;;;;3.97;1.70;;;;;;;;;;5093868;28;20027;-76
2021/04/24 11:25:16;;;;;;;5.20;1.70;;;;;;;;;;5092887;28;20559;-76
2021/04/24 11:28:00;;;;;;;4.40;1.63;;;;;;;;;;5093903;28;20170;-76
2021/04/24 11:30:45;;;;;;;5.30;1.70;;;;;;;;;;5094283;28;20028;-77
2021/04/24 11:33:29;;;;;;;5.55;1.80;;;;;;;;;;5094328;28;20101;-77
2021/04/24 11:36:18;;;;;;;8.48;2.38;;;;;;;;;;5094210;28;20024;-77
2021/04/24 11:41:36;;;;;;;5.85;2.38;;;;;;;;;;5073534;28;20157;-77
2021/04/24 11:46:43;;;;;;;6.17;2.10;;;;;;;;;;5074081;28;20036;-77
2021/04/24 11:49:13;;;;;;;5.10;2.00;;;;;;;;;;5073679;28;20075;-77
2021/04/24 11:51:43;;;;;;;4.00;1.90;;;;;;;;;;5089142;28;20024;-76
2021/04/24 11:54:11;;;;;;;6.55;1.90;;;;;;;;;;5089213;28;20036;-77
2021/04/24 11:56:39;;;;;;;5.10;1.60;;;;;;;;;;5070789;28;20013;-77
2021/04/24 11:59:05;;;;;;;4.03;1.80;;;;;;;;;;5073356;28;20016;-77
2021/04/24 12:01:31;;;;;;;5.28;1.98;;;;;;;;;;5071756;28;20486;-77
2021/04/24 12:03:57;;;;;;;11.27;2.50;;;;;;;;;;5073437;28;20048;-78
2021/04/24 12:06:32;;;;;;;4.97;2.25;;;;;;;;;;5071935;28;20025;-77
2021/04/24 12:08:59;;;;;;;6.70;1.92;;;;;;;;;;5073214;28;20025;-78
2021/04/24 12:11:25;;;;;;;6.82;2.22;;;;;;;;;;5077108;28;20490;-76
2021/04/24 12:13:52;;;;;;;5.97;2.10;;;;;;;;;;5092059;28;20024;-75
2021/04/24 12:16:18;;;;;;;4.10;1.77;;;;;;;;;;5092055;28;20375;-78
2021/04/24 12:18:44;;;;;;;6.18;2.45;;;;;;;;;;5091928;28;20073;-76
2021/04/24 12:21:10;;;;;;;6.88;2.33;;;;;;;;;;5078380;28;20020;-78
2021/04/24 12:23:36;;;;;;;5.57;2.08;;;;;;;;;;5088219;28;20717;-76
2021/04/24 12:26:02;;;;;;;6.20;1.73;;;;;;;;;;5088464;28;20040;-73
2021/04/24 12:28:28;;;;;;;9.02;2.13;;;;;;;;;;5078546;28;20085;-72
2021/04/24 12:30:55;;;;;;;4.95;2.30;;;;;;;;;;5093372;28;20020;-71
2021/04/24 12:33:22;;;;;;;7.22;2.40;;;;;;;;;;5092911;28;20024;-75
2021/04/24 12:35:48;;;;;;;5.68;2.00;;;;;;;;;;5093016;28;20030;-75
2021/04/24 12:38:15;;;;;;;3.85;1.60;;;;;;;;;;5092873;28;20024;-75
2021/04/24 12:40:43;;;;;;;8.65;2.00;;;;;;;;;;5091648;28;20023;-76
2021/04/24 12:43:13;;;;;;;11.15;2.33;;;;;;;;;;5092669;28;20020;-73
2021/04/24 12:45:42;;;;;;;5.13;1.60;;;;;;;;;;5085450;28;20115;-75
2021/04/24 12:48:28;;;;;;;4.80;1.80;;;;;;;;;;5088132;28;20100;-77
2021/04/24 12:50:59;;;;;;;5.38;1.98;;;;;;;;;;5072031;28;20024;-81
2021/04/24 12:53:44;;;;;;;5.57;2.00;;;;;;;;;;5090369;28;20493;-82
2021/04/24 12:56:14;;;;;;;6.25;2.05;;;;;;;;;;5091942;28;20540;-79
2021/04/24 12:58:43;;;;;;;5.38;2.10;;;;;;;;;;5090966;28;20582;-79
2021/04/24 13:01:15;;;;;;;5.60;1.95;;;;;;;;;;5092376;28;20024;-76
2021/04/24 13:03:42;;;;;;;4.75;1.80;;;;;;;;;;5090316;28;20027;-80
2021/04/24 13:06:34;;;;;;;6.75;1.75;;;;;;;;;;5090924;28;20088;-75
2021/04/24 13:09:01;;;;;;;7.78;1.90;;;;;;;;;;5067585;28;20040;-80
2021/04/24 13:11:37;;;;;;;6.72;1.70;;;;;;;;;;5070643;28;20025;-83
2021/04/24 13:14:08;;;;;;;5.55;1.83;;;;;;;;;;5073101;28;20025;-81
2021/04/24 13:16:34;;;;;;;5.95;1.80;;;;;;;;;;5090339;28;20499;-77
2021/04/24 13:19:00;;;;;;;3.38;1.65;;;;;;;;;;5090273;28;20031;-83
2021/04/24 13:21:31;;;;;;;17.30;2.28;;;;;;;;;;5087406;28;20025;-72
2021/04/24 13:24:06;;;;;;;5.80;1.95;;;;;;;;;;5087001;28;20029;-71
2021/04/24 13:26:33;;;;;;;3.75;1.52;;;;;;;;;;5087129;28;20089;-72
2021/04/24 13:29:31;;;;;;;3.42;1.60;;;;;;;;;;5089138;28;20215;-77
2021/04/24 13:32:01;;;;;;;4.90;1.50;;;;;;;;;;5046630;28;20039;-75
2021/04/24 13:34:30;;;;;;;4.88;1.50;;;;;;;;;;5090460;28;20016;-74
2021/04/24 13:37:00;;;;;;;3.42;1.30;;;;;;;;;;5080661;28;20036;-72
2021/04/24 13:39:28;;;;;;;6.05;1.60;;;;;;;;;;5075797;28;20474;-78
2021/04/24 13:41:54;;;;;;;3.47;1.48;;;;;;;;;;5091204;28;20223;-77
2021/04/24 13:44:21;;;;;;;4.53;1.77;;;;;;;;;;5090874;28;20047;-80
2021/04/24 13:46:49;;;;;;;4.68;1.70;;;;;;;;;;5088751;28;20031;-76
2021/04/24 13:49:20;;;;;;;8.27;1.77;;;;;;;;;;5090038;28;20050;-74
2021/04/24 13:51:50;;;;;;;4.30;1.50;;;;;;;;;;5091377;28;20093;-75
2021/04/24 13:54:16;;;;;;;4.60;1.20;;;;;;;;;;5090860;28;20035;-74
2021/04/24 13:56:43;;;;;;;5.43;1.70;;;;;;;;;;5089953;28;20055;-73
2021/04/24 13:59:09;;;;;;;5.57;1.55;;;;;;;;;;5091025;28;20024;-70
2021/04/24 14:01:36;;;;;;;3.20;1.40;;;;;;;;;;5091202;28;20021;-75
2021/04/24 14:04:03;;;;;;;4.63;1.42;;;;;;;;;;5090794;28;20537;-77
2021/04/24 14:06:29;;;;;;;5.22;1.45;;;;;;;;;;5088385;28;20103;-74
2021/04/24 14:08:55;;;;;;;4.45;1.70;;;;;;;;;;5090878;28;20024;-74
2021/04/24 14:11:21;;;;;;;4.07;1.58;;;;;;;;;;5086443;28;20017;-72
2021/04/24 14:13:47;;;;;;;6.47;1.80;;;;;;;;;;5091155;28;20059;-73
2021/04/24 14:16:13;;;;;;;3.83;1.30;;;;;;;;;;5091116;28;20020;-72
2021/04/24 14:18:40;;;;;;;5.57;1.30;;;;;;;;;;5090777;28;20344;-72
2021/04/24 14:21:07;;;;;;;5.22;1.10;;;;;;;;;;5070981;28;20040;-74
2021/04/24 14:23:33;;;;;;;16.95;1.77;;;;;;;;;;5070758;28;20013;-74
2021/04/24 14:25:59;;;;;;;11.00;1.92;;;;;;;;;;5070785;28;20415;-73
2021/04/24 14:28:25;;;;;;;5.45;1.75;;;;;;;;;;5087831;28;20061;-73
2021/04/24 14:30:52;;;;;;;3.75;1.67;;;;;;;;;;5090945;28;20027;-73
2021/04/24 14:33:18;;;;;;;4.55;1.60;;;;;;;;;;5090964;28;20100;-78
2021/04/24 14:35:44;;;;;;;3.72;1.52;;;;;;;;;;5090965;28;20032;-76
2021/04/24 14:38:11;;;;;;;7.63;1.80;;;;;;;;;;5086976;28;20016;-74
2021/04/24 14:40:37;;;;;;;4.28;1.75;;;;;;;;;;5068961;28;20024;-74
2021/04/24 14:43:03;;;;;;;3.22;1.40;;;;;;;;;;5070635;28;20036;-69
2021/04/24 14:45:29;;;;;;;3.65;1.40;;;;;;;;;;5085111;28;20036;-70
2021/04/24 14:47:55;;;;;;;6.13;1.48;;;;;;;;;;5089805;28;20016;-70
2021/04/24 14:50:21;;;;;;;4.85;1.40;;;;;;;;;;5091331;28;20102;-70
2021/04/24 14:52:47;;;;;;;3.33;1.40;;;;;;;;;;5090057;28;20399;-71